createdAt,value
2019-05-07T00:01:17.752Z,16.83
2019-05-07T00:03:47.529Z,16.63
2019-05-07T00:06:17.239Z,17.27
2019-05-07T00:08:47.494Z,17.40
2019-05-07T00:11:17.950Z,16.20
2019-05-07T00:13:48.059Z,16.80
2019-05-07T00:16:17.888Z,17.33
2019-05-07T00:18:47.686Z,17.40
2019-05-07T00:21:17.940Z,16.20
2019-05-07T00:23:47.601Z,17.10
2019-05-07T00:26:17.352Z,18.00
2019-05-07T00:28:47.104Z,17.23
2019-05-07T00:31:16.905Z,17.43
2019-05-07T00:33:46.946Z,16.37
2019-05-07T00:36:29.238Z,17.60
2019-05-07T00:39:15.689Z,17.33
2019-05-07T00:41:52.203Z,16.60
2019-05-07T00:44:23.153Z,16.53
2019-05-07T00:46:53.092Z,15.70
2019-05-07T00:49:24.664Z,15.50
2019-05-07T00:51:54.410Z,16.60
2019-05-07T00:54:24.120Z,16.73
2019-05-07T00:56:53.829Z,18.30
2019-05-07T00:59:23.553Z,17.67
2019-05-07T01:01:53.248Z,16.33
2019-05-07T01:04:23.163Z,17.40
2019-05-07T01:06:53.287Z,16.20
2019-05-07T01:09:23.119Z,18.30
2019-05-07T01:11:52.926Z,17.17
2019-05-07T01:14:22.955Z,16.03
2019-05-07T01:16:53.106Z,16.33
2019-05-07T01:19:22.835Z,16.07
2019-05-07T01:21:52.664Z,15.50
2019-05-07T01:24:23.310Z,16.37
2019-05-07T01:26:53.222Z,15.60
2019-05-07T01:29:23.464Z,16.67
2019-05-07T01:32:03.124Z,16.10
2019-05-07T01:34:43.010Z,16.63
2019-05-07T01:37:13.134Z,17.50
2019-05-07T01:39:43.495Z,16.73
2019-05-07T01:42:13.720Z,17.03
2019-05-07T01:44:43.438Z,15.93
2019-05-07T01:47:13.451Z,15.70
2019-05-07T01:49:43.308Z,17.37
2019-05-07T01:52:13.459Z,16.97
2019-05-07T01:54:43.236Z,17.70
2019-05-07T01:57:12.957Z,15.80
2019-05-07T01:59:42.908Z,16.03
2019-05-07T02:02:19.881Z,15.07
2019-05-07T02:05:07.315Z,16.50
2019-05-07T02:07:42.938Z,15.70
2019-05-07T02:10:28.810Z,15.60
2019-05-07T02:12:58.793Z,16.87
2019-05-07T02:15:28.788Z,17.70
2019-05-07T02:17:58.667Z,15.90
2019-05-07T02:20:28.519Z,15.07
2019-05-07T02:22:58.396Z,15.47
2019-05-07T02:25:28.177Z,16.37
2019-05-07T02:27:57.994Z,16.63
2019-05-07T02:30:27.624Z,17.97
2019-05-07T02:32:57.610Z,16.53
2019-05-07T02:35:27.829Z,16.77
2019-05-07T02:38:13.857Z,16.90
2019-05-07T02:40:48.342Z,16.10
2019-05-07T02:43:18.307Z,15.30
2019-05-07T02:46:22.312Z,16.27
2019-05-07T02:48:48.571Z,15.83
2019-05-07T02:51:24.975Z,17.03
2019-05-07T02:54:03.357Z,16.33
2019-05-07T02:56:33.433Z,16.17
2019-05-07T02:59:04.225Z,16.50
2019-05-07T03:01:34.240Z,16.73
2019-05-07T03:04:04.793Z,16.70
2019-05-07T03:06:34.566Z,17.77
2019-05-07T03:09:05.486Z,17.40
2019-05-07T03:11:35.417Z,17.17
2019-05-07T03:14:06.308Z,18.00
2019-05-07T03:16:43.786Z,19.23
2019-05-07T03:19:07.841Z,18.00
2019-05-07T03:21:56.375Z,18.97
2019-05-07T03:24:34.352Z,19.13
2019-05-07T03:27:04.585Z,18.90
2019-05-07T03:29:35.336Z,19.30
2019-05-07T03:32:38.743Z,21.20
2019-05-07T03:35:37.109Z,20.07
2019-05-07T03:38:04.996Z,20.10
2019-05-07T03:40:35.811Z,20.30
2019-05-07T03:43:06.239Z,19.10
2019-05-07T03:45:47.838Z,19.20
2019-05-07T03:48:19.107Z,20.90
2019-05-07T03:50:48.835Z,23.07
2019-05-07T03:53:18.514Z,21.40
2019-05-07T03:55:48.290Z,21.57
2019-05-07T03:58:18.053Z,22.00
2019-05-07T04:00:47.980Z,22.87
2019-05-07T04:03:19.646Z,23.97
2019-05-07T04:05:52.824Z,22.43
2019-05-07T04:08:23.603Z,20.77
2019-05-07T04:10:54.259Z,22.13
2019-05-07T04:13:24.587Z,23.33
2019-05-07T04:15:54.624Z,25.70
2019-05-07T04:18:24.698Z,24.00
2019-05-07T04:20:54.576Z,24.13
2019-05-07T04:23:24.596Z,22.90
2019-05-07T04:26:16.719Z,24.63
2019-05-07T04:28:59.581Z,23.40
2019-05-07T04:31:34.270Z,21.07
2019-05-07T04:34:08.101Z,21.43
2019-05-07T04:36:43.985Z,23.50
2019-05-07T04:39:13.680Z,23.03
2019-05-07T04:41:43.737Z,21.97
2019-05-07T04:44:14.416Z,24.37
2019-05-07T04:46:47.932Z,23.03
2019-05-07T04:49:16.479Z,21.73
2019-05-07T04:51:52.886Z,23.17
2019-05-07T04:54:23.743Z,23.27
2019-05-07T04:56:53.715Z,22.50
2019-05-07T04:59:23.984Z,23.93
2019-05-07T05:02:00.748Z,23.93
2019-05-07T05:04:34.636Z,22.73
2019-05-07T05:07:02.740Z,23.60
2019-05-07T05:09:33.161Z,21.33
2019-05-07T05:12:03.051Z,22.53
2019-05-07T05:14:33.719Z,21.20
2019-05-07T05:17:03.954Z,23.23
2019-05-07T05:19:33.752Z,20.33
2019-05-07T05:22:18.947Z,22.30
2019-05-07T05:25:08.229Z,22.17
2019-05-07T05:27:38.292Z,22.07
2019-05-07T05:30:09.963Z,22.13
2019-05-07T05:32:39.972Z,21.93
2019-05-07T05:35:09.978Z,20.83
2019-05-07T05:37:42.763Z,23.30
2019-05-07T05:40:13.102Z,21.97
2019-05-07T05:42:48.902Z,22.10
2019-05-07T05:45:34.967Z,20.50
2019-05-07T05:48:08.421Z,21.50
2019-05-07T05:50:57.052Z,22.80
2019-05-07T05:53:39.558Z,22.23
2019-05-07T05:56:18.837Z,21.80
2019-05-07T05:59:12.839Z,22.73
2019-05-07T06:02:03.342Z,22.50
2019-05-07T08:44:15.243Z,15.50
2019-05-07T08:49:36.868Z,14.80
2019-05-07T08:52:03.540Z,15.50
2019-05-07T08:54:34.527Z,16.23
2019-05-07T09:09:38.761Z,14.60
2019-05-07T09:12:08.718Z,15.97
2019-05-07T09:19:50.037Z,16.27
2019-05-07T09:22:08.161Z,17.73
2019-05-07T09:24:38.128Z,19.30
2019-05-07T09:27:16.122Z,17.43
2019-05-07T09:30:04.784Z,17.87
2019-05-07T09:32:44.611Z,18.33
2019-05-07T09:35:21.685Z,18.83
2019-05-07T09:37:52.721Z,17.83
2019-05-07T09:40:22.761Z,17.83
2019-05-07T09:42:52.740Z,16.20
2019-05-07T09:45:22.643Z,17.47
2019-05-07T09:47:52.372Z,17.30
2019-05-07T09:50:22.174Z,17.63
2019-05-07T09:52:52.065Z,16.17
2019-05-07T09:55:23.369Z,17.47
2019-05-07T09:57:53.237Z,15.27
2019-05-07T10:00:23.999Z,13.80
2019-05-07T10:02:56.627Z,14.87
2019-05-07T10:05:25.390Z,15.60
2019-05-07T10:07:55.357Z,16.60
2019-05-07T10:10:25.208Z,17.27
2019-05-07T10:13:03.595Z,13.27
2019-05-07T10:15:33.712Z,11.80
2019-05-07T10:18:12.229Z,12.90
2019-05-07T10:20:42.183Z,13.73
2019-05-07T10:23:22.813Z,13.83
2019-05-07T10:25:54.833Z,11.87
2019-05-07T10:28:25.274Z,12.23
2019-05-07T13:30:46.599Z,10.40
2019-05-07T13:33:18.285Z,10.20
2019-05-07T13:35:49.304Z,12.85
2019-05-07T13:38:37.115Z,10.90
2019-05-07T13:41:22.858Z,12.07
2019-05-07T13:44:18.748Z,13.33
2019-05-07T13:46:52.882Z,11.37
2019-05-07T13:49:22.311Z,13.77
2019-05-07T13:52:03.275Z,13.30
2019-05-07T13:54:24.071Z,14.77
2019-05-07T13:56:54.237Z,13.73
2019-05-07T13:59:24.131Z,13.60
2019-05-07T14:02:09.338Z,12.13
2019-05-07T14:04:39.220Z,11.37
2019-05-07T14:07:09.575Z,12.60
2019-05-07T14:09:41.870Z,12.77
2019-05-07T14:12:12.274Z,12.73
2019-05-07T14:14:42.559Z,13.67
2019-05-07T14:17:12.972Z,12.13
2019-05-07T14:19:43.199Z,11.40
2019-05-07T14:22:18.814Z,12.20
2019-05-07T14:24:45.173Z,11.90
2019-05-07T14:27:15.470Z,11.13
2019-05-07T14:29:45.995Z,11.17
2019-05-07T14:32:31.524Z,12.53
2019-05-07T14:35:23.752Z,11.20
2019-05-07T14:37:57.332Z,11.27
2019-05-07T14:40:27.515Z,11.87
2019-05-07T14:43:03.992Z,11.63
2019-05-07T14:45:33.929Z,10.03
2019-05-07T14:48:04.163Z,10.10
2019-05-07T14:50:34.047Z,10.40
2019-05-07T14:53:04.032Z,9.80
2019-05-07T14:55:34.873Z,10.53
2019-05-07T14:58:05.156Z,10.77
2019-05-07T15:00:35.498Z,10.73
2019-05-07T15:03:06.023Z,11.23
2019-05-07T15:05:36.308Z,11.63
2019-05-07T15:08:10.872Z,10.43
2019-05-07T15:10:38.362Z,10.00
2019-05-07T15:13:08.542Z,10.97
2019-05-07T15:15:38.832Z,11.43
2019-05-07T15:18:17.985Z,11.20
2019-05-07T15:20:47.815Z,9.70
2019-05-07T15:23:33.563Z,10.13
2019-05-07T15:26:04.820Z,9.20
2019-05-07T15:28:36.393Z,11.20
2019-05-07T15:31:13.068Z,9.60
2019-05-07T15:33:42.839Z,10.17
2019-05-07T15:36:12.916Z,9.50
2019-05-07T15:38:43.120Z,9.43
2019-05-07T15:41:13.079Z,9.00
2019-05-07T15:43:45.944Z,9.70
2019-05-07T15:46:14.850Z,9.80
2019-05-07T15:48:44.572Z,9.57
2019-05-07T15:51:16.945Z,9.00
2019-05-07T15:53:52.235Z,9.27
2019-05-07T15:56:21.984Z,8.10
2019-05-07T15:58:52.053Z,7.97
2019-05-07T16:01:22.281Z,9.80
2019-05-07T16:03:54.919Z,9.13
2019-05-07T16:06:23.518Z,8.70
2019-05-07T16:08:56.014Z,9.37
2019-05-07T16:11:26.037Z,8.60
2019-05-07T16:14:14.974Z,8.30
2019-05-07T16:16:46.825Z,8.80
2019-05-07T16:19:24.785Z,8.70
2019-05-07T16:21:55.215Z,9.67
2019-05-07T16:24:25.070Z,9.40
2019-05-07T16:26:54.805Z,9.23
2019-05-07T16:29:24.746Z,9.57
2019-05-07T16:31:54.731Z,9.70
2019-05-07T16:34:24.782Z,9.47
2019-05-07T16:36:54.616Z,9.37
2019-05-07T16:39:24.694Z,9.83
2019-05-07T16:41:55.240Z,9.10
2019-05-07T16:44:25.084Z,9.67
2019-05-07T16:46:55.160Z,9.60
2019-05-07T16:49:25.327Z,8.40
2019-05-07T16:51:55.193Z,9.20
2019-05-07T16:54:25.474Z,8.47
2019-05-07T16:57:12.860Z,10.17
2019-05-07T16:59:43.154Z,9.37
2019-05-07T17:02:18.589Z,9.30
2019-05-07T17:05:12.147Z,9.37
2019-05-07T17:07:52.752Z,10.20
2019-05-07T17:10:22.905Z,9.00
2019-05-07T17:12:52.641Z,10.20
2019-05-07T17:15:22.973Z,9.23
2019-05-07T17:17:59.358Z,8.43
2019-05-07T17:20:29.532Z,9.73
2019-05-07T17:22:59.692Z,9.70
2019-05-07T17:25:39.089Z,8.87
2019-05-07T17:28:09.462Z,8.90
2019-05-07T17:30:41.902Z,8.80
2019-05-07T17:33:12.804Z,8.73
2019-05-07T17:35:43.021Z,9.00
2019-05-07T17:38:13.107Z,8.83
2019-05-07T17:40:43.274Z,8.60
2019-05-07T17:43:13.249Z,8.83
2019-05-07T17:45:43.456Z,9.57
2019-05-07T17:48:13.693Z,8.13
2019-05-07T17:50:51.962Z,8.33
2019-05-07T17:53:22.497Z,8.40
2019-05-07T17:55:53.063Z,8.07
2019-05-07T17:58:23.363Z,8.70
2019-05-07T18:00:57.182Z,8.47
2019-05-07T18:03:34.000Z,8.63
2019-05-07T18:06:04.322Z,7.77
2019-05-07T18:08:34.193Z,8.73
2019-05-07T18:11:17.332Z,9.63
2019-05-07T18:13:35.551Z,8.13
2019-05-07T18:16:36.629Z,8.33
2019-05-07T18:19:06.429Z,8.20
2019-05-07T18:21:36.043Z,7.20
2019-05-07T18:24:13.828Z,7.80
2019-05-07T18:26:38.061Z,8.13
2019-05-07T18:29:07.892Z,7.20
2019-05-07T18:31:49.308Z,7.80
2019-05-07T18:34:19.192Z,6.87
2019-05-07T18:36:49.943Z,7.00
2019-05-07T18:39:20.511Z,6.77
2019-05-07T18:41:52.295Z,7.27
2019-05-07T18:44:22.641Z,7.73
2019-05-07T18:46:54.584Z,8.60
2019-05-07T18:49:24.548Z,7.70
2019-05-07T18:51:55.016Z,8.60
2019-05-07T18:54:30.616Z,8.10
2019-05-07T18:56:56.282Z,8.80
2019-05-07T18:59:28.492Z,8.10
2019-05-07T19:01:58.211Z,6.90
2019-05-07T19:04:30.194Z,7.90
2019-05-07T19:06:59.834Z,7.60
2019-05-07T19:09:31.820Z,8.97
2019-05-07T19:12:01.653Z,8.30
2019-05-07T19:14:33.293Z,7.03
2019-05-07T19:17:03.583Z,8.10
2019-05-07T19:19:34.084Z,7.87
2019-05-07T19:22:04.239Z,6.60
2019-05-07T19:24:44.228Z,8.03
2019-05-07T19:27:06.463Z,8.57
2019-05-07T19:29:36.418Z,7.17
2019-05-07T19:32:07.883Z,6.60
2019-05-07T19:34:37.610Z,7.67
2019-05-07T19:37:07.385Z,7.63
2019-05-07T19:39:37.220Z,7.80
2019-05-07T19:42:07.036Z,7.00
2019-05-07T19:44:37.173Z,8.23
2019-05-07T19:47:06.847Z,7.67
2019-05-07T19:49:36.568Z,8.20
2019-05-07T19:52:06.463Z,7.77
2019-05-07T19:54:36.279Z,7.60
2019-05-07T19:57:06.427Z,7.60
2019-05-07T19:59:36.747Z,8.40
2019-05-07T20:02:08.380Z,8.00
2019-05-07T20:04:38.267Z,7.13
2019-05-07T20:07:08.143Z,8.07
2019-05-07T20:09:38.722Z,9.63
2019-05-07T20:12:08.496Z,8.70
2019-05-07T20:14:38.660Z,7.30
2019-05-07T20:17:08.554Z,7.50
2019-05-07T20:19:38.547Z,7.73
2019-05-07T20:22:08.384Z,7.47
2019-05-07T20:24:38.421Z,7.60
2019-05-07T20:27:08.663Z,6.90
2019-05-07T20:29:38.458Z,7.87
2019-05-07T20:32:08.416Z,8.40
2019-05-07T20:34:38.202Z,8.00
2019-05-07T20:37:08.179Z,9.10
2019-05-07T20:39:38.291Z,9.37
2019-05-07T20:42:08.550Z,9.03
2019-05-07T20:44:38.681Z,8.43
2019-05-07T20:47:08.396Z,8.30
2019-05-07T20:49:38.556Z,9.47
2019-05-07T20:52:08.510Z,9.10
2019-05-07T20:54:43.213Z,8.90
2019-05-07T20:57:32.415Z,8.70
2019-05-07T21:00:02.880Z,10.00
2019-05-07T21:02:44.878Z,8.70
2019-05-07T21:05:04.451Z,9.47
2019-05-07T21:07:34.615Z,13.00
2019-05-07T21:10:04.952Z,9.67
2019-05-07T21:12:34.728Z,11.00
2019-05-07T21:15:04.721Z,9.57
2019-05-07T21:17:34.546Z,9.07
2019-05-07T21:20:04.478Z,8.70
2019-05-07T21:22:35.103Z,8.47
2019-05-07T21:25:06.295Z,8.73
2019-05-07T21:27:36.241Z,9.30
2019-05-07T21:30:06.297Z,9.27
2019-05-07T21:32:36.546Z,8.77
2019-05-07T21:35:07.680Z,8.80
2019-05-07T21:37:37.651Z,8.37
2019-05-07T21:40:08.368Z,9.20
2019-05-07T21:42:38.038Z,9.00
2019-05-07T21:45:08.183Z,8.57
2019-05-07T21:47:39.179Z,9.37
2019-05-07T21:50:09.199Z,9.67
2019-05-07T21:52:40.995Z,9.20
2019-05-07T21:55:30.446Z,8.60
2019-05-07T21:58:26.674Z,8.30
2019-05-07T22:01:12.537Z,8.47
2019-05-07T22:03:44.685Z,8.90
2019-05-07T22:06:14.906Z,10.13
2019-05-07T22:08:44.692Z,7.90
2019-05-07T22:11:14.768Z,9.40
2019-05-07T22:13:44.961Z,8.60
2019-05-07T22:16:14.888Z,9.20
2019-05-07T22:18:44.941Z,8.57
2019-05-07T22:21:14.587Z,8.27
2019-05-07T22:23:44.561Z,8.97
2019-05-07T22:26:22.856Z,9.70
2019-05-07T22:28:45.730Z,8.40
2019-05-07T22:31:37.578Z,8.63
2019-05-07T22:34:23.316Z,9.40
2019-05-07T22:36:54.982Z,8.83
2019-05-07T22:39:24.415Z,8.57
2019-05-07T22:41:54.610Z,9.33
2019-05-07T22:44:26.306Z,9.20
2019-05-07T22:46:58.506Z,8.60
2019-05-07T22:49:28.101Z,8.17
2019-05-07T22:51:57.938Z,8.80
2019-05-07T22:54:27.859Z,7.73
2019-05-07T22:57:05.902Z,7.60
2019-05-07T22:59:35.990Z,7.40
2019-05-07T23:02:06.139Z,7.20
2019-05-07T23:04:35.988Z,7.40
2019-05-07T23:07:05.771Z,7.33
2019-05-07T23:09:36.074Z,7.93
2019-05-07T23:12:06.041Z,8.50
2019-05-07T23:14:35.845Z,8.07
2019-05-07T23:17:06.093Z,8.30
2019-05-07T23:19:35.822Z,8.10
2019-05-07T23:22:06.011Z,8.47
2019-05-07T23:24:36.297Z,8.70
2019-05-07T23:27:06.270Z,8.03
2019-05-07T23:29:36.247Z,8.17
2019-05-07T23:32:06.129Z,8.80
2019-05-07T23:34:36.169Z,8.80
2019-05-07T23:37:05.793Z,8.53
2019-05-07T23:39:37.921Z,7.93
2019-05-07T23:42:12.938Z,8.47
2019-05-07T23:44:42.929Z,7.63
2019-05-07T23:47:12.842Z,7.70
2019-05-07T23:49:43.129Z,8.17
2019-05-07T23:52:13.048Z,8.13
2019-05-07T23:54:43.152Z,7.33
2019-05-07T23:57:15.354Z,6.50
2019-05-07T23:59:44.951Z,7.27
